Time;durP1;ratioP1;P1;durP2;ratioP2;P2;SDS_P1;SDS_P2;PMS_P1;PMS_P2;Temp;Humidity;BMP_temperature;BMP_pressure;BME280_temperature;BME280_humidity;BME280_pressure;Samples;Min_cycle;Max_cycle;Signal;HPM_P1;HPM_P2
2021/04/12 00:00:24;;;;;;;1.95;1.23;;;11.30;58.10;;;;;;20748105;28;20111;-61
2021/04/12 00:10:31;;;;;;;1.77;1.10;;;11.20;58.50;;;;;;20748579;28;20169;-65
2021/04/12 00:20:42;;;;;;;1.67;1.20;;;11.20;58.50;;;;;;20748698;28;20037;-65
2021/04/12 00:31:10;;;;;;;1.40;1.08;;;11.10;58.30;;;;;;20748154;28;20062;-63
2021/04/12 00:41:52;;;;;;;1.77;1.23;;;11.00;58.20;;;;;;20754431;28;20041;-63
2021/04/12 00:52:22;;;;;;;1.70;1.20;;;10.90;57.90;;;;;;20750233;28;20368;-61
2021/04/12 01:02:56;;;;;;;2.28;0.80;;;10.70;57.00;;;;;;20746736;28;20526;-63
2021/04/12 01:13:06;;;;;;;2.22;0.80;;;10.40;56.90;;;;;;20746428;28;20044;-63
2021/04/12 01:23:19;;;;;;;1.30;0.90;;;10.30;57.60;;;;;;20745657;28;20041;-64
2021/04/12 01:34:01;;;;;;;1.10;0.90;;;10.20;56.90;;;;;;20757086;28;20413;-63
2021/04/12 01:44:34;;;;;;;1.30;0.80;;;10.10;57.10;;;;;;20351126;29;20062;-64
2021/04/12 01:55:02;;;;;;;3.17;0.70;;;10.10;56.10;;;;;;20349968;29;20149;-62
2021/04/12 02:05:11;;;;;;;1.00;0.73;;;9.90;56.60;;;;;;20349338;29;20154;-63
2021/04/12 02:15:50;;;;;;;1.35;0.80;;;9.80;57.00;;;;;;20483202;28;20113;-64
2021/04/12 02:26:18;;;;;;;1.58;0.75;;;9.70;56.70;;;;;;20348026;29;20105;-63
2021/04/12 02:36:28;;;;;;;1.00;0.80;;;9.50;56.80;;;;;;20346844;29;20036;-61
2021/04/12 02:47:20;;;;;;;1.33;0.90;;;9.40;56.50;;;;;;20330013;29;20048;-63
2021/04/12 02:57:53;;;;;;;2.28;1.00;;;9.30;56.50;;;;;;20335132;29;20509;-64
2021/04/12 03:08:11;;;;;;;1.58;0.80;;;9.30;56.40;;;;;;20344691;29;20048;-64
2021/04/12 03:18:20;;;;;;;2.03;0.90;;;9.30;56.00;;;;;;20344146;29;20040;-63
2021/04/12 03:28:40;;;;;;;1.55;1.00;;;9.10;55.70;;;;;;20515332;28;20065;-64
2021/04/12 03:39:17;;;;;;;2.03;0.88;;;9.00;55.80;;;;;;20750255;28;20026;-63
2021/04/12 03:49:41;;;;;;;2.25;0.98;;;9.00;56.00;;;;;;20749205;28;20509;-58
2021/04/12 04:00:10;;;;;;;1.92;1.10;;;8.80;56.70;;;;;;20748680;28;20528;-59
2021/04/12 04:10:16;;;;;;;2.88;1.13;;;8.80;56.80;;;;;;20749255;28;20100;-63
2021/04/12 04:20:27;;;;;;;1.77;0.95;;;8.70;56.90;;;;;;20748699;28;20033;-63
2021/04/12 04:30:52;;;;;;;1.40;0.90;;;8.60;57.20;;;;;;20748562;28;20061;-59
2021/04/12 04:41:16;;;;;;;1.40;0.90;;;8.50;57.30;;;;;;20747451;28;20095;-59
2021/04/12 04:51:43;;;;;;;1.38;0.98;;;8.40;57.10;;;;;;20747164;28;20029;-63
2021/04/12 05:02:29;;;;;;;2.13;0.90;;;8.40;56.80;;;;;;20737123;28;20126;-63
2021/04/12 05:12:48;;;;;;;4.55;1.13;;;8.20;57.30;;;;;;20353749;29;20055;-64
2021/04/12 05:23:31;;;;;;;2.53;1.30;;;8.20;57.60;;;;;;20352838;29;20052;-62
2021/04/12 05:33:36;;;;;;;2.70;1.10;;;8.30;57.00;;;;;;20352321;29;20116;-60
2021/04/12 05:43:40;;;;;;;1.25;0.85;;;8.10;57.10;;;;;;20507423;28;20045;-62
2021/04/12 05:54:04;;;;;;;2.35;1.10;;;8.00;57.10;;;;;;20768224;28;20030;-64
2021/04/12 06:04:30;;;;;;;1.67;1.10;;;8.00;57.30;;;;;;20756739;28;20052;-59
2021/04/12 06:15:08;;;;;;;2.95;1.15;;;8.10;57.00;;;;;;20757024;28;20026;-63
2021/04/12 06:25:46;;;;;;;2.47;1.48;;;7.90;56.90;;;;;;20350409;29;20537;-61
2021/04/12 06:36:24;;;;;;;4.30;1.63;;;8.00;56.80;;;;;;20347924;29;20099;-60
2021/04/12 06:46:36;;;;;;;3.22;1.60;;;8.00;56.00;;;;;;20347402;29;20128;-59
2021/04/12 06:56:42;;;;;;;3.95;1.55;;;8.00;56.00;;;;;;20540762;28;20050;-59
2021/04/12 07:06:54;;;;;;;3.45;1.65;;;8.30;55.00;;;;;;20751956;28;20049;-61
2021/04/12 07:17:32;;;;;;;2.60;1.50;;;8.70;53.10;;;;;;20752733;28;20022;-60
2021/04/12 07:28:10;;;;;;;3.85;1.38;;;9.10;52.00;;;;;;20750434;28;20504;-63
2021/04/12 07:38:29;;;;;;;3.17;1.23;;;9.40;50.10;;;;;;20749997;28;20030;-63
2021/04/12 07:48:57;;;;;;;4.90;1.30;;;9.50;48.50;;;;;;20749921;28;20117;-64
2021/04/12 07:59:12;;;;;;;3.03;1.20;;;9.80;47.80;;;;;;20749404;28;20387;-62
2021/04/12 08:09:22;;;;;;;;;;;10.20;46.50;;;;;;20747576;28;20100;-62
2021/04/12 08:20:09;;;;;;;2.65;1.08;;;10.40;45.40;;;;;;20750111;28;19948;-63
2021/04/12 08:30:47;;;;;;;2.35;1.20;;;10.80;44.20;;;;;;20498916;28;20075;-63
2021/04/12 08:41:19;;;;;;;1.75;0.80;;;11.00;43.60;;;;;;20507824;28;20419;-58
2021/04/12 08:51:56;;;;;;;5.80;1.67;;;11.40;48.20;;;;;;20512106;29;20184;-59
2021/04/12 09:02:23;;;;;;;2.88;1.00;;;12.50;42.00;;;;;;20747679;28;20552;-57
2021/04/12 09:12:42;;;;;;;3.22;0.98;;;12.70;46.50;;;;;;20749588;28;20034;-61
2021/04/12 09:23:26;;;;;;;11.85;1.98;;;14.70;42.20;;;;;;20758731;28;20494;-56
2021/04/12 09:33:42;;;;;;;14.13;1.63;;;15.40;39.20;;;;;;20751380;28;20065;-60
2021/04/12 09:44:04;;;;;;;6.70;1.20;;;15.70;37.70;;;;;;20757693;28;20390;-56
2021/04/12 09:54:26;;;;;;;4.32;1.98;;;15.70;36.60;;;;;;20755459;28;20029;-60
2021/04/12 10:04:49;;;;;;;2.25;0.90;;;15.70;36.20;;;;;;20756107;28;20486;-51
2021/04/12 10:15:16;;;;;;;4.10;0.90;;;15.90;34.00;;;;;;20755832;28;20026;-63
2021/04/12 10:25:33;;;;;;;3.72;1.13;;;16.00;35.60;;;;;;20754356;28;20045;-55
2021/04/12 10:35:39;;;;;;;3.92;1.00;;;16.10;35.50;;;;;;20753420;28;20037;-54
2021/04/12 10:45:54;;;;;;;17.42;3.28;;;16.20;34.40;;;;;;20752013;28;20092;-53
2021/04/12 10:56:06;;;;;;;6.38;1.30;;;16.20;34.80;;;;;;20750746;28;20057;-49
2021/04/12 11:06:29;;;;;;;4.57;1.25;;;16.50;34.60;;;;;;20750494;28;20042;-56
2021/04/12 11:16:45;;;;;;;6.22;1.27;;;16.60;34.40;;;;;;20750221;28;20029;-47
2021/04/12 11:27:06;;;;;;;4.22;1.20;;;16.80;34.60;;;;;;20750191;28;20416;-50
2021/04/12 11:37:21;;;;;;;8.18;1.83;;;16.90;34.70;;;;;;20749377;28;20100;-50
2021/04/12 11:48:05;;;;;;;13.13;1.70;;;17.00;35.30;;;;;;20748959;28;20049;-51
2021/04/12 11:58:17;;;;;;;5.40;1.48;;;17.20;35.40;;;;;;20385832;29;20053;-54
2021/04/12 12:08:47;;;;;;;3.13;1.50;;;17.20;34.80;;;;;;20341091;29;20099;-51
2021/04/12 12:19:12;;;;;;;3.97;1.80;;;17.20;34.10;;;;;;20340014;29;20111;-51
2021/04/12 12:29:36;;;;;;;2.80;1.50;;;16.90;34.80;;;;;;20436117;28;20047;-52
2021/04/12 12:39:42;;;;;;;4.22;1.80;;;17.00;34.30;;;;;;20665696;28;20110;-51
2021/04/12 12:49:51;;;;;;;6.85;2.15;;;17.20;34.30;;;;;;20665053;28;20476;-52
2021/04/12 13:00:09;;;;;;;5.63;1.98;;;17.10;33.40;;;;;;20757925;28;20041;-52
2021/04/12 13:10:27;;;;;;;3.33;2.10;;;16.70;33.90;;;;;;20827598;28;20049;-52
2021/04/12 13:20:38;;;;;;;6.43;2.65;;;16.70;34.30;;;;;;20827124;28;20056;-52
2021/04/12 13:30:44;;;;;;;8.70;2.80;;;16.90;34.10;;;;;;20841584;28;20374;-52
2021/04/12 13:41:12;;;;;;;4.88;2.30;;;17.00;34.40;;;;;;20840956;28;20032;-53
2021/04/12 13:51:47;;;;;;;4.35;2.65;;;17.30;34.10;;;;;;20839862;28;20030;-52
2021/04/12 14:01:58;;;;;;;7.07;2.67;;;17.40;33.50;;;;;;20839105;28;20057;-53
2021/04/12 14:12:05;;;;;;;6.07;2.75;;;17.70;33.30;;;;;;20838649;28;20025;-52
2021/04/12 14:22:18;;;;;;;8.20;3.42;;;17.50;32.60;;;;;;20837998;28;20037;-51
2021/04/12 14:32:23;;;;;;;3.63;2.47;;;17.50;33.00;;;;;;20835028;28;20183;-52
2021/04/12 14:42:24;;;;;;;4.68;2.08;;;17.50;32.40;;;;;;20837329;28;20152;-52
2021/04/12 14:52:33;;;;;;;4.63;2.00;;;17.60;32.30;;;;;;20835120;28;20026;-53
2021/04/12 15:02:54;;;;;;;7.13;2.03;;;17.70;31.60;;;;;;20834279;28;20064;-51
2021/04/12 15:13:08;;;;;;;3.33;2.00;;;17.80;30.90;;;;;;20833517;28;20036;-53
2021/04/12 15:23:36;;;;;;;3.88;2.15;;;17.70;31.10;;;;;;20833174;28;20030;-53
2021/04/12 15:33:48;;;;;;;3.97;1.70;;;17.90;29.60;;;;;;20580186;28;20102;-52
2021/04/12 15:43:50;;;;;;;4.00;1.50;;;17.90;27.50;;;;;;20579587;28;20054;-52
2021/04/12 15:54:06;;;;;;;2.63;1.38;;;18.00;27.10;;;;;;20578796;28;20038;-51
2021/04/12 16:04:09;;;;;;;2.55;1.27;;;18.10;27.00;;;;;;20619620;28;20049;-54
2021/04/12 16:14:37;;;;;;;2.42;1.40;;;18.10;28.10;;;;;;20829009;28;20442;-54
2021/04/12 16:24:40;;;;;;;5.70;1.10;;;18.10;27.60;;;;;;20736206;28;20042;-50
2021/04/12 16:34:42;;;;;;;4.93;1.40;;;18.20;30.40;;;;;;20759666;28;20478;-51
2021/04/12 16:44:50;;;;;;;3.38;1.08;;;18.20;30.80;;;;;;20727587;28;20295;-48
2021/04/12 16:55:09;;;;;;;4.97;1.88;;;18.20;29.60;;;;;;20745564;28;20053;-50
2021/04/12 17:05:20;;;;;;;2.67;1.55;;;18.10;28.70;;;;;;20760366;28;20073;-53
2021/04/12 17:15:40;;;;;;;3.08;1.40;;;18.20;28.20;;;;;;20759369;28;20137;-56
2021/04/12 17:25:49;;;;;;;2.75;1.40;;;18.20;27.10;;;;;;20759375;28;20057;-56
2021/04/12 17:36:10;;;;;;;4.95;1.67;;;18.30;30.70;;;;;;20758449;28;20129;-60
2021/04/12 17:46:24;;;;;;;4.03;1.42;;;18.30;32.40;;;;;;20757200;28;20133;-55
2021/04/12 17:56:28;;;;;;;4.90;1.80;;;18.30;29.00;;;;;;20756829;28;20048;-53
2021/04/12 18:06:30;;;;;;;;;;;18.20;32.60;;;;;;20756613;28;20041;-52
2021/04/12 18:16:54;;;;;;;3.67;1.60;;;18.00;32.60;;;;;;20754828;28;19948;-49
2021/04/12 18:26:55;;;;;;;;;;;18.20;32.00;;;;;;20757042;28;20382;-52
2021/04/12 18:36:56;;;;;;;2.50;1.50;;;17.90;30.90;;;;;;20753938;28;19960;-48
2021/04/12 18:47:03;;;;;;;5.38;1.80;;;17.90;30.80;;;;;;20749930;28;20050;-55
2021/04/12 18:57:28;;;;;;;4.80;1.75;;;17.80;30.40;;;;;;20751151;28;20041;-52
2021/04/12 19:08:07;;;;;;;5.25;3.45;;;17.60;25.50;;;;;;20752515;28;20034;-52
2021/04/12 19:18:24;;;;;;;4.95;3.10;;;17.30;25.10;;;;;;20423231;29;20055;-52
2021/04/12 19:28:47;;;;;;;4.50;2.63;;;17.20;26.00;;;;;;20422617;29;20055;-52
2021/04/12 19:38:54;;;;;;;7.03;3.03;;;17.00;25.30;;;;;;20421384;29;20040;-52
2021/04/12 19:49:15;;;;;;;5.47;2.67;;;16.80;26.40;;;;;;20453117;29;20047;-53
2021/04/12 19:59:39;;;;;;;6.20;3.30;;;16.70;25.80;;;;;;20499025;29;20444;-52
2021/04/12 20:09:55;;;;;;;6.27;2.93;;;16.70;24.90;;;;;;20565139;28;20125;-52
2021/04/12 20:20:17;;;;;;;9.23;4.55;;;16.60;25.30;;;;;;20730927;28;20679;-53
2021/04/12 20:30:42;;;;;;;5.82;2.80;;;16.50;27.20;;;;;;20747674;28;20034;-52
2021/04/12 20:41:22;;;;;;;7.70;3.60;;;16.30;27.70;;;;;;20773442;28;20050;-52
2021/04/12 20:51:24;;;;;;;6.53;4.28;;;16.30;28.00;;;;;;20770780;28;20486;-53
2021/04/12 21:01:43;;;;;;;11.27;5.00;;;16.10;28.40;;;;;;20754084;28;20406;-51
2021/04/12 21:11:50;;;;;;;7.15;4.57;;;16.20;28.70;;;;;;20760818;28;20425;-53
2021/04/12 21:22:02;;;;;;;9.27;4.00;;;16.00;27.90;;;;;;20761812;28;20046;-53
2021/04/12 21:32:26;;;;;;;3.88;3.22;;;16.00;28.60;;;;;;20758601;28;20395;-53
2021/04/12 21:42:42;;;;;;;7.90;2.90;;;15.90;34.20;;;;;;20757309;28;20038;-53
2021/04/12 21:53:14;;;;;;;9.90;3.63;;;15.70;35.90;;;;;;20759260;28;20034;-52
2021/04/12 22:03:32;;;;;;;7.22;2.55;;;15.60;37.20;;;;;;20757967;28;20053;-51
2021/04/12 22:13:48;;;;;;;5.47;2.28;;;15.40;38.10;;;;;;20756345;28;20030;-52
2021/04/12 22:24:04;;;;;;;3.60;1.75;;;15.30;38.80;;;;;;20756668;28;20041;-53
2021/04/12 22:44:52;;;;;;;4.72;2.30;;;15.10;40.20;;;;;;20752852;28;20038;-53
2021/04/12 22:55:08;;;;;;;4.10;2.15;;;14.80;41.60;;;;;;20736690;28;20103;-52
2021/04/12 23:05:24;;;;;;;3.67;2.00;;;14.80;42.30;;;;;;20753319;28;20034;-52
2021/04/12 23:15:48;;;;;;;4.85;2.60;;;14.80;41.80;;;;;;20753298;28;20038;-52
2021/04/12 23:25:52;;;;;;;6.75;2.67;;;14.70;41.40;;;;;;20752107;28;20085;-51
2021/04/12 23:36:02;;;;;;;8.38;3.70;;;14.50;41.80;;;;;;20751464;28;20076;-53
2021/04/12 23:46:09;;;;;;;6.28;2.90;;;14.50;42.20;;;;;;20750676;28;20069;-53
2021/04/12 23:56:10;;;;;;;4.75;2.65;;;14.50;40.70;;;;;;20732419;28;20095;-53
